sensor_id;sensor_type;location;lat;lon;timestamp;noise_LAeq;noise_LA_min;noise_LA_max;noise_LA01;noise_LA95
77361;Laerm;66427;51.798;10.954;2023-06-10T00:01:44;30.79;28.57;36.01;;
77361;Laerm;66427;51.798;10.954;2023-06-10T00:04:15;37.21;29.97;51.82;;
77361;Laerm;66427;51.798;10.954;2023-06-10T00:06:43;31.52;27.97;42.20;;
77361;Laerm;66427;51.798;10.954;2023-06-10T00:09:09;42.21;30.21;55.94;;
77361;Laerm;66427;51.798;10.954;2023-06-10T00:11:35;35.10;29.93;44.25;;
77361;Laerm;66427;51.798;10.954;2023-06-10T00:14:01;30.61;27.83;41.90;;
77361;Laerm;66427;51.798;10.954;2023-06-10T00:16:27;32.61;29.22;40.51;;
77361;Laerm;66427;51.798;10.954;2023-06-10T00:18:53;50.35;31.71;66.85;;
77361;Laerm;66427;51.798;10.954;2023-06-10T00:21:21;36.23;30.37;46.06;;
77361;Laerm;66427;51.798;10.954;2023-06-10T00:23:49;37.80;30.06;52.17;;
77361;Laerm;66427;51.798;10.954;2023-06-10T00:26:15;41.04;35.35;46.84;;
77361;Laerm;66427;51.798;10.954;2023-06-10T00:28:41;39.93;32.12;45.85;;
77361;Laerm;66427;51.798;10.954;2023-06-10T00:31:07;39.64;29.53;46.57;;
77361;Laerm;66427;51.798;10.954;2023-06-10T00:33:33;37.02;28.73;48.29;;
77361;Laerm;66427;51.798;10.954;2023-06-10T00:35:58;33.62;28.18;45.60;;
77361;Laerm;66427;51.798;10.954;2023-06-10T00:38:24;30.20;27.81;43.10;;
77361;Laerm;66427;51.798;10.954;2023-06-10T00:40:50;31.51;27.45;39.21;;
77361;Laerm;66427;51.798;10.954;2023-06-10T00:43:16;31.78;27.65;38.79;;
77361;Laerm;66427;51.798;10.954;2023-06-10T00:45:41;39.79;29.08;51.40;;
77361;Laerm;66427;51.798;10.954;2023-06-10T00:48:08;37.09;29.02;46.82;;
77361;Laerm;66427;51.798;10.954;2023-06-10T00:50:33;35.23;30.27;45.03;;
77361;Laerm;66427;51.798;10.954;2023-06-10T00:52:59;36.04;29.76;43.60;;
77361;Laerm;66427;51.798;10.954;2023-06-10T00:55:26;35.59;28.97;49.23;;
77361;Laerm;66427;51.798;10.954;2023-06-10T00:57:52;36.71;30.28;43.94;;
77361;Laerm;66427;51.798;10.954;2023-06-10T01:00:18;35.63;29.55;45.05;;
77361;Laerm;66427;51.798;10.954;2023-06-10T01:02:44;32.42;29.04;40.50;;
77361;Laerm;66427;51.798;10.954;2023-06-10T01:05:10;33.77;27.59;43.38;;
77361;Laerm;66427;51.798;10.954;2023-06-10T01:10:24;31.70;28.31;47.52;;
77361;Laerm;66427;51.798;10.954;2023-06-10T01:12:56;33.01;27.93;44.54;;
77361;Laerm;66427;51.798;10.954;2023-06-10T01:15:24;30.28;27.75;42.86;;
77361;Laerm;66427;51.798;10.954;2023-06-10T01:20:23;31.71;28.73;38.78;;
77361;Laerm;66427;51.798;10.954;2023-06-10T01:22:49;35.35;29.86;45.79;;
77361;Laerm;66427;51.798;10.954;2023-06-10T01:25:16;49.81;28.63;66.09;;
77361;Laerm;66427;51.798;10.954;2023-06-10T01:27:42;33.87;28.90;43.91;;
77361;Laerm;66427;51.798;10.954;2023-06-10T01:30:11;35.27;29.27;50.61;;
77361;Laerm;66427;51.798;10.954;2023-06-10T01:32:42;34.00;29.26;45.32;;
77361;Laerm;66427;51.798;10.954;2023-06-10T01:35:09;29.79;27.77;35.42;;
77361;Laerm;66427;51.798;10.954;2023-06-10T01:37:36;34.54;27.97;56.42;;
77361;Laerm;66427;51.798;10.954;2023-06-10T01:40:04;36.55;28.67;45.19;;
77361;Laerm;66427;51.798;10.954;2023-06-10T01:42:31;44.00;28.21;60.34;;
77361;Laerm;66427;51.798;10.954;2023-06-10T01:44:57;47.15;33.73;59.78;;
77361;Laerm;66427;51.798;10.954;2023-06-10T01:47:23;45.52;32.49;58.28;;
77361;Laerm;66427;51.798;10.954;2023-06-10T01:49:48;48.43;33.79;59.15;;
77361;Laerm;66427;51.798;10.954;2023-06-10T01:52:14;48.73;34.71;58.85;;
77361;Laerm;66427;51.798;10.954;2023-06-10T01:54:40;48.92;31.42;60.35;;
77361;Laerm;66427;51.798;10.954;2023-06-10T01:57:06;51.54;33.35;64.70;;
77361;Laerm;66427;51.798;10.954;2023-06-10T01:59:32;53.00;34.01;65.09;;
77361;Laerm;66427;51.798;10.954;2023-06-10T02:01:57;51.47;35.56;65.70;;
77361;Laerm;66427;51.798;10.954;2023-06-10T02:04:23;52.20;33.91;65.72;;
77361;Laerm;66427;51.798;10.954;2023-06-10T02:06:49;52.76;34.35;67.93;;
77361;Laerm;66427;51.798;10.954;2023-06-10T02:09:15;51.18;33.11;64.00;;
77361;Laerm;66427;51.798;10.954;2023-06-10T02:11:43;53.11;34.61;67.55;;
77361;Laerm;66427;51.798;10.954;2023-06-10T02:14:09;53.32;36.90;69.24;;
77361;Laerm;66427;51.798;10.954;2023-06-10T02:16:34;46.32;33.96;56.94;;
77361;Laerm;66427;51.798;10.954;2023-06-10T02:19:00;45.63;36.59;53.99;;
77361;Laerm;66427;51.798;10.954;2023-06-10T02:21:28;46.59;36.58;54.89;;
77361;Laerm;66427;51.798;10.954;2023-06-10T02:23:54;45.35;36.41;54.92;;
77361;Laerm;66427;51.798;10.954;2023-06-10T02:26:19;46.84;35.76;54.45;;
77361;Laerm;66427;51.798;10.954;2023-06-10T02:28:46;46.48;33.89;56.57;;
77361;Laerm;66427;51.798;10.954;2023-06-10T02:31:12;50.04;35.60;65.87;;
77361;Laerm;66427;51.798;10.954;2023-06-10T02:33:38;50.45;36.35;63.51;;
77361;Laerm;66427;51.798;10.954;2023-06-10T02:36:05;46.76;37.18;55.36;;
77361;Laerm;66427;51.798;10.954;2023-06-10T02:38:31;47.48;37.65;54.76;;
77361;Laerm;66427;51.798;10.954;2023-06-10T02:40:56;47.97;36.08;54.04;;
77361;Laerm;66427;51.798;10.954;2023-06-10T02:43:22;47.34;36.13;54.94;;
77361;Laerm;66427;51.798;10.954;2023-06-10T02:45:48;47.82;35.26;61.92;;
77361;Laerm;66427;51.798;10.954;2023-06-10T02:48:14;47.55;35.94;56.10;;
77361;Laerm;66427;51.798;10.954;2023-06-10T02:50:40;50.18;36.18;66.28;;
77361;Laerm;66427;51.798;10.954;2023-06-10T02:53:06;48.31;37.97;56.24;;
77361;Laerm;66427;51.798;10.954;2023-06-10T02:55:32;46.68;34.67;54.35;;
77361;Laerm;66427;51.798;10.954;2023-06-10T02:57:58;45.82;35.23;55.46;;
77361;Laerm;66427;51.798;10.954;2023-06-10T03:00:26;46.88;36.26;56.81;;
77361;Laerm;66427;51.798;10.954;2023-06-10T03:02:52;47.81;37.65;56.58;;
77361;Laerm;66427;51.798;10.954;2023-06-10T03:05:23;44.10;34.21;57.07;;
77361;Laerm;66427;51.798;10.954;2023-06-10T03:07:49;47.58;37.01;55.35;;
77361;Laerm;66427;51.798;10.954;2023-06-10T03:10:14;47.88;34.81;57.00;;
77361;Laerm;66427;51.798;10.954;2023-06-10T03:12:40;48.06;34.08;58.27;;
77361;Laerm;66427;51.798;10.954;2023-06-10T03:15:06;48.87;36.15;58.57;;
77361;Laerm;66427;51.798;10.954;2023-06-10T03:17:32;52.01;34.88;67.35;;
77361;Laerm;66427;51.798;10.954;2023-06-10T03:19:58;48.13;35.70;63.45;;
77361;Laerm;66427;51.798;10.954;2023-06-10T03:22:23;43.56;35.51;53.45;;
77361;Laerm;66427;51.798;10.954;2023-06-10T03:24:49;44.84;34.93;52.51;;
77361;Laerm;66427;51.798;10.954;2023-06-10T03:27:16;44.85;35.90;53.60;;
77361;Laerm;66427;51.798;10.954;2023-06-10T03:29:42;44.90;35.57;53.53;;
77361;Laerm;66427;51.798;10.954;2023-06-10T03:32:08;43.99;34.71;54.54;;
77361;Laerm;66427;51.798;10.954;2023-06-10T03:34:34;47.98;34.64;58.10;;
77361;Laerm;66427;51.798;10.954;2023-06-10T03:36:59;47.51;37.54;58.49;;
77361;Laerm;66427;51.798;10.954;2023-06-10T03:39:25;43.22;35.26;53.68;;
77361;Laerm;66427;51.798;10.954;2023-06-10T03:41:54;45.71;34.99;53.87;;
77361;Laerm;66427;51.798;10.954;2023-06-10T03:44:28;46.05;33.42;55.43;;
77361;Laerm;66427;51.798;10.954;2023-06-10T03:46:54;44.21;33.00;57.77;;
77361;Laerm;66427;51.798;10.954;2023-06-10T03:49:21;45.44;33.88;56.60;;
77361;Laerm;66427;51.798;10.954;2023-06-10T03:51:52;42.69;33.82;58.55;;
77361;Laerm;66427;51.798;10.954;2023-06-10T03:54:18;47.61;36.83;58.91;;
77361;Laerm;66427;51.798;10.954;2023-06-10T03:56:44;47.70;34.15;59.89;;
77361;Laerm;66427;51.798;10.954;2023-06-10T03:59:10;50.67;34.05;62.92;;
77361;Laerm;66427;51.798;10.954;2023-06-10T04:01:35;44.90;32.79;66.42;;
77361;Laerm;66427;51.798;10.954;2023-06-10T04:04:02;48.65;33.56;66.38;;
77361;Laerm;66427;51.798;10.954;2023-06-10T04:06:28;46.11;33.27;56.37;;
77361;Laerm;66427;51.798;10.954;2023-06-10T04:08:55;44.76;32.44;59.07;;
77361;Laerm;66427;51.798;10.954;2023-06-10T04:11:22;41.91;31.76;51.08;;
77361;Laerm;66427;51.798;10.954;2023-06-10T04:13:49;50.85;34.05;65.47;;
77361;Laerm;66427;51.798;10.954;2023-06-10T04:16:15;44.44;33.82;53.72;;
77361;Laerm;66427;51.798;10.954;2023-06-10T04:18:41;50.09;33.61;65.89;;
77361;Laerm;66427;51.798;10.954;2023-06-10T04:21:07;48.71;37.90;58.35;;
77361;Laerm;66427;51.798;10.954;2023-06-10T04:23:34;48.55;35.65;58.62;;
77361;Laerm;66427;51.798;10.954;2023-06-10T04:26:00;46.46;34.00;56.87;;
77361;Laerm;66427;51.798;10.954;2023-06-10T04:28:26;41.71;33.13;53.86;;
77361;Laerm;66427;51.798;10.954;2023-06-10T04:30:52;41.93;32.74;52.30;;
77361;Laerm;66427;51.798;10.954;2023-06-10T04:33:17;42.88;34.19;55.62;;
77361;Laerm;66427;51.798;10.954;2023-06-10T04:35:43;42.58;35.98;52.54;;
77361;Laerm;66427;51.798;10.954;2023-06-10T04:38:09;53.25;33.17;70.95;;
77361;Laerm;66427;51.798;10.954;2023-06-10T04:40:36;52.34;33.02;67.82;;
77361;Laerm;66427;51.798;10.954;2023-06-10T04:43:01;49.27;33.47;65.98;;
77361;Laerm;66427;51.798;10.954;2023-06-10T04:45:27;44.15;33.25;60.40;;
77361;Laerm;66427;51.798;10.954;2023-06-10T04:47:54;46.94;32.97;59.55;;
77361;Laerm;66427;51.798;10.954;2023-06-10T04:50:21;47.50;33.78;59.59;;
77361;Laerm;66427;51.798;10.954;2023-06-10T04:52:46;41.56;32.76;55.81;;
77361;Laerm;66427;51.798;10.954;2023-06-10T04:55:12;52.62;32.82;67.01;;
77361;Laerm;66427;51.798;10.954;2023-06-10T04:57:38;40.70;32.77;49.99;;
77361;Laerm;66427;51.798;10.954;2023-06-10T05:00:04;53.15;34.68;68.66;;
77361;Laerm;66427;51.798;10.954;2023-06-10T05:02:31;47.29;33.45;58.34;;
77361;Laerm;66427;51.798;10.954;2023-06-10T05:04:57;49.58;34.27;64.41;;
77361;Laerm;66427;51.798;10.954;2023-06-10T05:07:23;42.75;32.76;57.48;;
77361;Laerm;66427;51.798;10.954;2023-06-10T05:09:49;53.17;33.38;69.27;;
77361;Laerm;66427;51.798;10.954;2023-06-10T05:12:18;51.22;33.44;63.67;;
77361;Laerm;66427;51.798;10.954;2023-06-10T05:14:44;49.76;35.92;60.35;;
77361;Laerm;66427;51.798;10.954;2023-06-10T05:17:10;48.99;31.99;64.56;;
77361;Laerm;66427;51.798;10.954;2023-06-10T05:19:38;47.21;33.29;63.40;;
77361;Laerm;66427;51.798;10.954;2023-06-10T05:22:04;41.06;34.01;51.62;;
77361;Laerm;66427;51.798;10.954;2023-06-10T05:24:29;52.18;34.56;68.85;;
77361;Laerm;66427;51.798;10.954;2023-06-10T05:26:56;44.52;33.10;60.14;;
77361;Laerm;66427;51.798;10.954;2023-06-10T05:29:21;47.78;33.76;59.62;;
77361;Laerm;66427;51.798;10.954;2023-06-10T05:31:48;50.64;34.77;62.54;;
77361;Laerm;66427;51.798;10.954;2023-06-10T05:34:14;48.09;34.93;61.23;;
77361;Laerm;66427;51.798;10.954;2023-06-10T05:36:39;53.80;37.21;69.34;;
77361;Laerm;66427;51.798;10.954;2023-06-10T05:39:05;47.08;35.78;60.04;;
77361;Laerm;66427;51.798;10.954;2023-06-10T05:41:31;51.76;35.24;66.60;;
77361;Laerm;66427;51.798;10.954;2023-06-10T05:43:57;51.36;35.15;61.98;;
77361;Laerm;66427;51.798;10.954;2023-06-10T05:46:23;48.82;34.10;64.28;;
77361;Laerm;66427;51.798;10.954;2023-06-10T05:48:50;58.60;36.02;71.62;;
77361;Laerm;66427;51.798;10.954;2023-06-10T05:51:16;51.27;34.11;64.07;;
77361;Laerm;66427;51.798;10.954;2023-06-10T05:53:42;53.61;34.73;67.62;;
77361;Laerm;66427;51.798;10.954;2023-06-10T05:56:08;52.65;34.80;64.11;;
77361;Laerm;66427;51.798;10.954;2023-06-10T05:58:35;57.28;34.47;70.06;;
77361;Laerm;66427;51.798;10.954;2023-06-10T06:01:01;52.66;35.74;67.24;;
77361;Laerm;66427;51.798;10.954;2023-06-10T06:03:26;45.58;35.40;57.89;;
77361;Laerm;66427;51.798;10.954;2023-06-10T06:05:53;50.60;35.02;62.74;;
77361;Laerm;66427;51.798;10.954;2023-06-10T06:08:19;51.88;36.07;63.72;;
77361;Laerm;66427;51.798;10.954;2023-06-10T06:10:45;50.36;35.51;62.29;;
77361;Laerm;66427;51.798;10.954;2023-06-10T06:13:12;54.79;36.03;66.10;;
77361;Laerm;66427;51.798;10.954;2023-06-10T06:15:38;49.56;35.67;62.18;;
77361;Laerm;66427;51.798;10.954;2023-06-10T06:18:04;48.69;36.06;65.99;;
77361;Laerm;66427;51.798;10.954;2023-06-10T06:20:30;53.09;35.85;66.40;;
77361;Laerm;66427;51.798;10.954;2023-06-10T06:22:56;50.77;35.21;65.37;;
77361;Laerm;66427;51.798;10.954;2023-06-10T06:25:21;52.32;35.98;66.01;;
77361;Laerm;66427;51.798;10.954;2023-06-10T06:27:49;51.13;35.36;66.61;;
77361;Laerm;66427;51.798;10.954;2023-06-10T06:30:15;52.72;36.65;67.05;;
77361;Laerm;66427;51.798;10.954;2023-06-10T06:32:40;59.08;38.04;76.30;;
77361;Laerm;66427;51.798;10.954;2023-06-10T06:35:07;57.82;38.38;72.46;;
77361;Laerm;66427;51.798;10.954;2023-06-10T06:37:33;50.76;39.28;61.14;;
77361;Laerm;66427;51.798;10.954;2023-06-10T06:39:59;55.36;36.20;69.64;;
77361;Laerm;66427;51.798;10.954;2023-06-10T06:42:24;52.27;36.75;66.42;;
77361;Laerm;66427;51.798;10.954;2023-06-10T06:44:50;56.48;39.19;70.98;;
77361;Laerm;66427;51.798;10.954;2023-06-10T06:47:17;49.03;36.48;60.59;;
77361;Laerm;66427;51.798;10.954;2023-06-10T06:49:45;53.71;38.53;66.22;;
77361;Laerm;66427;51.798;10.954;2023-06-10T06:52:11;55.88;38.00;65.51;;
77361;Laerm;66427;51.798;10.954;2023-06-10T06:54:37;56.35;37.38;66.77;;
77361;Laerm;66427;51.798;10.954;2023-06-10T06:57:02;53.99;37.27;66.25;;
77361;Laerm;66427;51.798;10.954;2023-06-10T06:59:28;59.30;39.35;74.75;;
77361;Laerm;66427;51.798;10.954;2023-06-10T07:01:54;55.05;38.09;69.05;;
77361;Laerm;66427;51.798;10.954;2023-06-10T07:04:20;55.36;38.09;67.30;;
77361;Laerm;66427;51.798;10.954;2023-06-10T07:06:49;55.30;38.65;66.41;;
77361;Laerm;66427;51.798;10.954;2023-06-10T07:09:14;51.27;37.41;61.69;;
77361;Laerm;66427;51.798;10.954;2023-06-10T07:11:40;53.03;40.08;65.10;;
77361;Laerm;66427;51.798;10.954;2023-06-10T07:14:07;57.66;37.17;66.83;;
77361;Laerm;66427;51.798;10.954;2023-06-10T07:16:33;51.80;38.24;63.32;;
77361;Laerm;66427;51.798;10.954;2023-06-10T07:18:58;55.89;40.12;66.54;;
77361;Laerm;66427;51.798;10.954;2023-06-10T07:21:25;55.15;39.32;67.38;;
77361;Laerm;66427;51.798;10.954;2023-06-10T07:23:53;55.07;39.12;67.77;;
77361;Laerm;66427;51.798;10.954;2023-06-10T07:26:19;53.11;39.58;64.18;;
77361;Laerm;66427;51.798;10.954;2023-06-10T07:28:45;55.89;40.56;66.91;;
77361;Laerm;66427;51.798;10.954;2023-06-10T07:31:11;55.51;40.07;69.25;;
77361;Laerm;66427;51.798;10.954;2023-06-10T07:33:37;54.20;41.26;63.38;;
77361;Laerm;66427;51.798;10.954;2023-06-10T07:36:04;56.75;40.03;68.81;;
77361;Laerm;66427;51.798;10.954;2023-06-10T07:38:30;52.57;39.84;70.34;;
77361;Laerm;66427;51.798;10.954;2023-06-10T07:40:56;56.29;40.55;71.49;;
77361;Laerm;66427;51.798;10.954;2023-06-10T07:43:22;53.15;43.01;64.39;;
77361;Laerm;66427;51.798;10.954;2023-06-10T07:45:48;50.22;42.40;67.39;;
77361;Laerm;66427;51.798;10.954;2023-06-10T07:48:14;56.23;42.92;68.90;;
77361;Laerm;66427;51.798;10.954;2023-06-10T07:50:41;56.16;40.06;68.78;;
77361;Laerm;66427;51.798;10.954;2023-06-10T07:53:07;55.48;38.43;68.22;;
77361;Laerm;66427;51.798;10.954;2023-06-10T07:55:32;52.92;39.33;64.42;;
77361;Laerm;66427;51.798;10.954;2023-06-10T07:57:58;52.96;39.45;66.62;;
77361;Laerm;66427;51.798;10.954;2023-06-10T08:00:24;55.67;39.85;66.47;;
77361;Laerm;66427;51.798;10.954;2023-06-10T08:02:50;55.56;41.29;67.28;;
77361;Laerm;66427;51.798;10.954;2023-06-10T08:05:17;54.58;40.03;65.59;;
77361;Laerm;66427;51.798;10.954;2023-06-10T08:07:43;55.53;42.81;66.00;;
77361;Laerm;66427;51.798;10.954;2023-06-10T08:10:09;54.46;40.41;67.31;;
77361;Laerm;66427;51.798;10.954;2023-06-10T08:12:35;56.60;43.87;69.22;;
77361;Laerm;66427;51.798;10.954;2023-06-10T08:15:01;66.13;41.47;81.52;;
77361;Laerm;66427;51.798;10.954;2023-06-10T08:17:29;56.58;39.74;67.99;;
77361;Laerm;66427;51.798;10.954;2023-06-10T08:19:55;55.87;43.15;66.65;;
77361;Laerm;66427;51.798;10.954;2023-06-10T08:22:21;53.96;42.43;63.09;;
77361;Laerm;66427;51.798;10.954;2023-06-10T08:24:47;55.86;43.26;69.17;;
77361;Laerm;66427;51.798;10.954;2023-06-10T08:27:13;56.82;43.80;74.16;;
77361;Laerm;66427;51.798;10.954;2023-06-10T08:29:39;57.12;41.86;71.21;;
77361;Laerm;66427;51.798;10.954;2023-06-10T08:32:05;66.78;39.99;86.45;;
77361;Laerm;66427;51.798;10.954;2023-06-10T08:34:33;55.67;39.13;68.24;;
77361;Laerm;66427;51.798;10.954;2023-06-10T08:37:02;54.61;41.95;66.14;;
77361;Laerm;66427;51.798;10.954;2023-06-10T08:39:28;55.37;41.24;66.31;;
77361;Laerm;66427;51.798;10.954;2023-06-10T08:44:33;58.31;45.06;74.66;;
77361;Laerm;66427;51.798;10.954;2023-06-10T08:47:03;59.73;43.22;80.60;;
77361;Laerm;66427;51.798;10.954;2023-06-10T08:49:30;56.71;44.81;74.53;;
77361;Laerm;66427;51.798;10.954;2023-06-10T08:51:59;57.52;44.65;72.45;;
77361;Laerm;66427;51.798;10.954;2023-06-10T08:54:27;57.46;44.55;70.66;;
77361;Laerm;66427;51.798;10.954;2023-06-10T08:56:55;54.48;40.64;66.09;;
77361;Laerm;66427;51.798;10.954;2023-06-10T08:59:21;53.62;38.87;65.53;;
77361;Laerm;66427;51.798;10.954;2023-06-10T09:01:46;53.93;40.70;67.14;;
77361;Laerm;66427;51.798;10.954;2023-06-10T09:04:13;55.82;41.64;72.69;;
77361;Laerm;66427;51.798;10.954;2023-06-10T09:06:40;56.03;42.92;66.41;;
77361;Laerm;66427;51.798;10.954;2023-06-10T09:09:06;59.02;40.93;78.40;;
77361;Laerm;66427;51.798;10.954;2023-06-10T09:11:32;57.86;39.56;68.21;;
77361;Laerm;66427;51.798;10.954;2023-06-10T09:13:58;55.05;41.41;64.34;;
77361;Laerm;66427;51.798;10.954;2023-06-10T09:16:24;56.82;40.73;68.18;;
77361;Laerm;66427;51.798;10.954;2023-06-10T09:18:51;53.66;39.68;65.98;;
77361;Laerm;66427;51.798;10.954;2023-06-10T09:21:23;55.31;40.38;71.90;;
77361;Laerm;66427;51.798;10.954;2023-06-10T09:23:49;56.24;41.13;69.81;;
77361;Laerm;66427;51.798;10.954;2023-06-10T09:26:14;56.66;40.29;68.00;;
77361;Laerm;66427;51.798;10.954;2023-06-10T09:28:44;56.48;42.39;76.19;;
77361;Laerm;66427;51.798;10.954;2023-06-10T09:31:11;56.01;44.87;66.52;;
77361;Laerm;66427;51.798;10.954;2023-06-10T09:33:38;57.86;44.13;72.16;;
77361;Laerm;66427;51.798;10.954;2023-06-10T09:36:04;60.87;44.02;75.78;;
77361;Laerm;66427;51.798;10.954;2023-06-10T09:38:31;57.03;45.03;71.33;;
77361;Laerm;66427;51.798;10.954;2023-06-10T09:40:57;62.49;42.54;79.93;;
77361;Laerm;66427;51.798;10.954;2023-06-10T09:43:26;57.32;39.19;73.92;;
77361;Laerm;66427;51.798;10.954;2023-06-10T09:46:03;57.48;39.97;71.75;;
77361;Laerm;66427;51.798;10.954;2023-06-10T09:48:29;56.59;41.73;72.78;;
77361;Laerm;66427;51.798;10.954;2023-06-10T09:50:55;55.64;39.10;68.87;;
77361;Laerm;66427;51.798;10.954;2023-06-10T09:53:21;54.07;39.69;67.01;;
77361;Laerm;66427;51.798;10.954;2023-06-10T09:55:47;56.01;37.31;68.46;;
77361;Laerm;66427;51.798;10.954;2023-06-10T09:58:12;58.90;41.23;69.81;;
77361;Laerm;66427;51.798;10.954;2023-06-10T10:00:38;56.80;42.35;67.48;;
77361;Laerm;66427;51.798;10.954;2023-06-10T10:03:04;58.05;45.06;69.10;;
77361;Laerm;66427;51.798;10.954;2023-06-10T10:05:32;56.45;40.73;73.73;;
77361;Laerm;66427;51.798;10.954;2023-06-10T10:07:58;57.59;40.99;69.67;;
77361;Laerm;66427;51.798;10.954;2023-06-10T10:10:25;57.45;39.10;72.57;;
77361;Laerm;66427;51.798;10.954;2023-06-10T10:12:53;53.52;38.47;65.03;;
77361;Laerm;66427;51.798;10.954;2023-06-10T10:15:21;52.46;37.23;65.19;;
77361;Laerm;66427;51.798;10.954;2023-06-10T10:17:52;51.53;39.37;63.08;;
77361;Laerm;66427;51.798;10.954;2023-06-10T10:20:20;54.14;41.16;67.87;;
77361;Laerm;66427;51.798;10.954;2023-06-10T10:22:46;53.61;38.85;65.08;;
77361;Laerm;66427;51.798;10.954;2023-06-10T10:25:16;53.88;38.97;64.60;;
77361;Laerm;66427;51.798;10.954;2023-06-10T10:27:46;52.76;39.52;69.48;;
77361;Laerm;66427;51.798;10.954;2023-06-10T10:30:14;57.38;39.36;70.98;;
77361;Laerm;66427;51.798;10.954;2023-06-10T10:32:45;52.33;37.44;71.40;;
77361;Laerm;66427;51.798;10.954;2023-06-10T10:35:17;52.27;39.16;64.14;;
77361;Laerm;66427;51.798;10.954;2023-06-10T10:37:45;52.60;38.46;64.66;;
77361;Laerm;66427;51.798;10.954;2023-06-10T10:40:12;53.63;37.57;65.49;;
77361;Laerm;66427;51.798;10.954;2023-06-10T10:42:40;52.89;39.03;67.15;;
77361;Laerm;66427;51.798;10.954;2023-06-10T10:45:09;53.00;39.49;66.96;;
77361;Laerm;66427;51.798;10.954;2023-06-10T10:47:35;53.94;39.18;66.04;;
77361;Laerm;66427;51.798;10.954;2023-06-10T10:50:03;54.27;40.12;66.51;;
77361;Laerm;66427;51.798;10.954;2023-06-10T10:52:46;53.88;38.16;65.10;;
77361;Laerm;66427;51.798;10.954;2023-06-10T10:55:16;52.47;39.23;64.77;;
77361;Laerm;66427;51.798;10.954;2023-06-10T10:57:42;55.10;40.72;66.74;;
77361;Laerm;66427;51.798;10.954;2023-06-10T11:00:08;56.47;39.54;73.34;;
77361;Laerm;66427;51.798;10.954;2023-06-10T11:02:39;58.84;40.23;77.88;;
77361;Laerm;66427;51.798;10.954;2023-06-10T11:05:07;59.41;38.29;77.06;;
77361;Laerm;66427;51.798;10.954;2023-06-10T11:07:33;53.05;39.32;62.95;;
77361;Laerm;66427;51.798;10.954;2023-06-10T11:12:42;51.92;37.74;65.47;;
77361;Laerm;66427;51.798;10.954;2023-06-10T11:15:17;54.04;36.76;67.89;;
77361;Laerm;66427;51.798;10.954;2023-06-10T11:18:26;56.15;38.42;69.33;;
77361;Laerm;66427;51.798;10.954;2023-06-10T11:23:09;49.32;38.07;60.30;;
77361;Laerm;66427;51.798;10.954;2023-06-10T11:25:38;52.50;37.09;63.07;;
77361;Laerm;66427;51.798;10.954;2023-06-10T11:28:17;53.50;37.77;68.90;;
77361;Laerm;66427;51.798;10.954;2023-06-10T11:30:42;53.88;38.48;65.04;;
77361;Laerm;66427;51.798;10.954;2023-06-10T11:33:09;56.49;39.87;68.05;;
77361;Laerm;66427;51.798;10.954;2023-06-10T11:35:35;56.78;38.55;67.82;;
77361;Laerm;66427;51.798;10.954;2023-06-10T11:38:01;54.27;39.24;67.21;;
77361;Laerm;66427;51.798;10.954;2023-06-10T11:40:27;54.66;39.90;72.35;;
77361;Laerm;66427;51.798;10.954;2023-06-10T11:42:55;54.36;38.19;67.82;;
77361;Laerm;66427;51.798;10.954;2023-06-10T11:45:21;53.08;38.15;63.78;;
77361;Laerm;66427;51.798;10.954;2023-06-10T11:47:57;58.94;37.92;74.43;;
77361;Laerm;66427;51.798;10.954;2023-06-10T11:50:30;53.41;37.37;73.27;;
77361;Laerm;66427;51.798;10.954;2023-06-10T11:52:58;44.61;38.57;59.48;;
77361;Laerm;66427;51.798;10.954;2023-06-10T11:55:43;55.56;39.02;69.08;;
77361;Laerm;66427;51.798;10.954;2023-06-10T11:58:20;51.61;37.48;67.92;;
77361;Laerm;66427;51.798;10.954;2023-06-10T12:00:47;53.47;37.24;70.35;;
77361;Laerm;66427;51.798;10.954;2023-06-10T12:03:13;54.98;37.58;68.64;;
77361;Laerm;66427;51.798;10.954;2023-06-10T12:05:38;51.44;38.61;63.74;;
77361;Laerm;66427;51.798;10.954;2023-06-10T12:08:08;53.60;38.45;67.83;;
77361;Laerm;66427;51.798;10.954;2023-06-10T12:10:39;44.41;37.49;54.16;;
77361;Laerm;66427;51.798;10.954;2023-06-10T12:13:06;55.81;39.34;65.96;;
77361;Laerm;66427;51.798;10.954;2023-06-10T12:15:34;52.92;36.30;68.08;;
77361;Laerm;66427;51.798;10.954;2023-06-10T12:18:00;51.08;37.89;63.66;;
77361;Laerm;66427;51.798;10.954;2023-06-10T12:20:27;48.75;37.75;63.78;;
77361;Laerm;66427;51.798;10.954;2023-06-10T12:22:54;54.15;40.66;64.94;;
77361;Laerm;66427;51.798;10.954;2023-06-10T12:25:26;50.36;38.53;62.11;;
77361;Laerm;66427;51.798;10.954;2023-06-10T12:27:53;62.78;39.11;83.04;;
77361;Laerm;66427;51.798;10.954;2023-06-10T12:30:19;49.88;38.57;65.28;;
77361;Laerm;66427;51.798;10.954;2023-06-10T12:32:46;45.82;37.60;57.22;;
77361;Laerm;66427;51.798;10.954;2023-06-10T12:35:16;58.17;39.26;74.83;;
77361;Laerm;66427;51.798;10.954;2023-06-10T12:37:43;50.23;39.05;63.93;;
77361;Laerm;66427;51.798;10.954;2023-06-10T12:40:25;53.21;38.37;71.83;;
77361;Laerm;66427;51.798;10.954;2023-06-10T12:42:51;46.74;38.62;58.77;;
77361;Laerm;66427;51.798;10.954;2023-06-10T12:45:25;50.79;37.99;66.07;;
77361;Laerm;66427;51.798;10.954;2023-06-10T12:47:51;51.91;41.54;65.30;;
77361;Laerm;66427;51.798;10.954;2023-06-10T12:50:18;54.93;42.46;64.96;;
77361;Laerm;66427;51.798;10.954;2023-06-10T12:52:44;50.97;40.03;70.48;;
77361;Laerm;66427;51.798;10.954;2023-06-10T12:55:09;47.03;39.28;59.60;;
77361;Laerm;66427;51.798;10.954;2023-06-10T12:57:36;49.64;37.14;65.06;;
77361;Laerm;66427;51.798;10.954;2023-06-10T13:00:02;55.00;39.24;71.51;;
77361;Laerm;66427;51.798;10.954;2023-06-10T13:02:29;51.86;39.38;64.41;;
77361;Laerm;66427;51.798;10.954;2023-06-10T13:04:56;57.93;40.25;80.82;;
77361;Laerm;66427;51.798;10.954;2023-06-10T13:07:22;56.11;40.15;68.72;;
77361;Laerm;66427;51.798;10.954;2023-06-10T13:09:48;52.76;37.38;64.09;;
77361;Laerm;66427;51.798;10.954;2023-06-10T13:12:14;52.28;38.76;68.63;;
77361;Laerm;66427;51.798;10.954;2023-06-10T13:14:40;49.90;38.12;63.93;;
77361;Laerm;66427;51.798;10.954;2023-06-10T13:17:06;51.12;39.60;64.07;;
77361;Laerm;66427;51.798;10.954;2023-06-10T13:19:33;52.49;40.18;63.49;;
77361;Laerm;66427;51.798;10.954;2023-06-10T13:22:00;51.38;38.64;63.14;;
77361;Laerm;66427;51.798;10.954;2023-06-10T13:24:26;49.01;37.52;61.29;;
77361;Laerm;66427;51.798;10.954;2023-06-10T13:26:52;53.57;39.05;70.29;;
77361;Laerm;66427;51.798;10.954;2023-06-10T13:29:19;47.83;40.15;56.49;;
77361;Laerm;66427;51.798;10.954;2023-06-10T13:31:46;56.21;38.84;70.43;;
77361;Laerm;66427;51.798;10.954;2023-06-10T13:34:12;55.13;39.52;70.79;;
77361;Laerm;66427;51.798;10.954;2023-06-10T13:36:37;53.11;39.66;65.38;;
77361;Laerm;66427;51.798;10.954;2023-06-10T13:39:04;52.51;38.02;66.39;;
77361;Laerm;66427;51.798;10.954;2023-06-10T13:41:31;48.39;37.56;63.22;;
77361;Laerm;66427;51.798;10.954;2023-06-10T13:43:57;46.25;37.26;61.90;;